createdAt,value
2023-05-14T00:01:08.366Z,97992.44
2023-05-14T00:06:11.985Z,97994.19
2023-05-14T00:11:16.063Z,97938.09
2023-05-14T00:16:21.069Z,98040.06
2023-05-14T00:21:24.693Z,97875.72
2023-05-14T00:26:28.292Z,97852.59
2023-05-14T00:31:33.521Z,97761.84
2023-05-14T00:36:37.161Z,97992.19
2023-05-14T00:41:41.188Z,98018.19
2023-05-14T00:46:46.260Z,97997.78
2023-05-14T00:51:50.227Z,97909.16
2023-05-14T00:56:54.213Z,98025.72
2023-05-14T01:01:59.294Z,98057.09
2023-05-14T01:07:12.568Z,97924.03
2023-05-14T01:12:22.660Z,98004.78
2023-05-14T01:17:33.859Z,98001.94
2023-05-14T01:22:39.204Z,97963.31
2023-05-14T01:27:51.386Z,98045.09
2023-05-14T01:32:57.473Z,97918.00
2023-05-14T01:38:32.760Z,97986.09
2023-05-14T01:43:37.435Z,98043.22
2023-05-14T01:48:41.452Z,98037.03
2023-05-14T01:53:46.956Z,97760.19
2023-05-14T01:58:50.639Z,98037.06
2023-05-14T02:03:54.229Z,98013.56
2023-05-14T02:09:00.309Z,98011.31
2023-05-14T02:14:04.136Z,98003.47
2023-05-14T02:19:07.868Z,97825.66
2023-05-14T02:24:13.052Z,98039.72
2023-05-14T02:29:16.703Z,97697.72
2023-05-14T02:34:20.375Z,97820.34
2023-05-14T02:39:25.853Z,97971.59
2023-05-14T02:44:29.527Z,98039.81
2023-05-14T02:49:33.347Z,98019.97
2023-05-14T02:54:38.431Z,97967.06
2023-05-14T02:59:42.091Z,98009.44
2023-05-14T03:04:45.732Z,97973.25
2023-05-14T03:09:50.992Z,97927.78
2023-05-14T03:14:54.634Z,97981.53
2023-05-14T03:19:58.306Z,98025.41
2023-05-14T03:25:03.276Z,98043.38
2023-05-14T03:30:08.422Z,98055.59
2023-05-14T03:35:12.133Z,98045.84
2023-05-14T03:40:19.912Z,98041.53
2023-05-14T03:45:23.782Z,97962.53
2023-05-14T03:50:27.462Z,98041.72
2023-05-14T03:55:32.701Z,98022.91
2023-05-14T04:00:36.357Z,97729.00
2023-05-14T04:05:40.707Z,97988.16
2023-05-14T04:10:46.413Z,98038.63
2023-05-14T04:15:50.043Z,98029.97
2023-05-14T04:20:53.841Z,98064.28
2023-05-14T04:25:59.165Z,98005.75
2023-05-14T04:31:02.775Z,98039.47
2023-05-14T04:36:07.273Z,97999.31
2023-05-14T04:41:12.287Z,98031.59
2023-05-14T04:46:16.146Z,98040.69
2023-05-14T04:51:19.835Z,98022.50
2023-05-14T04:56:25.076Z,97975.31
2023-05-14T05:01:28.736Z,97815.78
2023-05-14T05:06:32.686Z,98053.94
2023-05-14T05:11:37.938Z,98037.41
2023-05-14T05:16:42.515Z,98045.25
2023-05-14T05:21:46.319Z,98004.50
2023-05-14T05:26:56.964Z,97903.41
2023-05-14T05:32:26.434Z,98038.84
2023-05-14T05:37:31.865Z,98038.66
2023-05-14T05:42:37.048Z,98050.63
2023-05-14T05:47:40.963Z,98009.84
2023-05-14T05:52:44.800Z,98008.00
2023-05-14T05:57:49.909Z,98037.78
2023-05-14T06:02:53.781Z,97967.44
2023-05-14T06:07:57.619Z,97986.94
2023-05-14T06:13:03.049Z,97906.69
2023-05-14T06:18:07.068Z,98056.63
2023-05-14T06:23:12.439Z,97878.63
2023-05-14T06:28:17.709Z,97963.09
2023-05-14T06:33:29.728Z,98013.00
2023-05-14T06:38:33.588Z,98040.00
2023-05-14T06:43:38.930Z,97982.31
2023-05-14T06:48:42.744Z,98017.41
2023-05-14T06:53:46.885Z,98008.31
2023-05-14T06:58:51.917Z,98064.53
2023-05-14T07:03:56.366Z,97964.03
2023-05-14T07:09:06.496Z,97926.00
2023-05-14T07:14:11.488Z,97998.91
2023-05-14T07:19:15.266Z,97896.00
2023-05-14T07:24:18.953Z,97999.44
2023-05-14T07:29:25.192Z,97903.53
2023-05-14T07:34:28.751Z,97919.59
2023-05-14T07:39:32.367Z,97987.69
2023-05-14T07:44:37.286Z,98008.56
2023-05-14T07:49:40.805Z,98013.19
2023-05-14T07:54:44.308Z,97990.72
2023-05-14T07:59:49.828Z,97984.00
2023-05-14T08:04:53.681Z,98002.97
2023-05-14T08:09:57.352Z,98001.78
2023-05-14T08:15:02.325Z,98006.25
2023-05-14T08:20:08.515Z,98001.59
2023-05-14T08:25:12.202Z,97895.06
2023-05-14T08:30:18.095Z,97987.97
2023-05-14T08:35:21.673Z,98003.19
2023-05-14T08:40:25.564Z,97981.44
2023-05-14T08:45:33.969Z,97975.31
2023-05-14T08:50:37.945Z,97939.31
2023-05-14T08:55:41.737Z,97905.28
2023-05-14T09:00:46.605Z,97956.88
2023-05-14T09:05:52.643Z,97856.31
2023-05-14T09:10:56.181Z,97716.72
2023-05-14T09:16:01.949Z,97979.72
2023-05-14T09:21:06.214Z,97834.44
2023-05-14T09:26:09.846Z,97932.47
2023-05-14T09:31:14.791Z,97947.31
2023-05-14T09:36:18.838Z,97951.31
2023-05-14T09:41:23.077Z,97902.75
2023-05-14T09:46:30.249Z,97954.53
2023-05-14T09:51:33.926Z,97933.94
2023-05-14T09:56:38.344Z,97935.91
2023-05-14T10:01:44.794Z,97736.47
2023-05-14T10:06:52.279Z,97876.53
2023-05-14T10:12:02.146Z,97905.78
2023-05-14T10:17:07.823Z,97830.69
2023-05-14T10:22:13.815Z,97937.38
2023-05-14T10:27:17.842Z,97814.25
2023-05-14T10:32:24.436Z,97929.31
2023-05-14T10:37:28.387Z,97934.09
2023-05-14T10:42:35.948Z,97936.47
2023-05-14T10:47:42.939Z,97872.00
2023-05-14T10:52:47.195Z,97928.44
2023-05-14T10:57:50.823Z,97917.56
2023-05-14T11:03:09.920Z,97618.31
2023-05-14T11:08:14.771Z,97855.69
2023-05-14T11:13:21.089Z,97832.97
2023-05-14T11:18:29.835Z,97890.00
2023-05-14T11:23:33.618Z,97754.78
2023-05-14T11:28:38.722Z,97884.63
2023-05-14T11:33:43.811Z,97846.03
2023-05-14T11:38:49.519Z,97875.34
2023-05-14T11:43:53.255Z,97859.53
2023-05-14T11:48:58.105Z,97752.72
2023-05-14T11:54:14.472Z,97790.19
2023-05-14T11:59:19.633Z,97815.09
2023-05-14T12:04:24.948Z,97846.50
2023-05-14T12:09:33.367Z,97751.50
2023-05-14T12:14:39.752Z,97828.28
2023-05-14T12:19:49.383Z,97543.34
2023-05-14T12:24:57.651Z,97853.16
2023-05-14T12:30:19.353Z,97837.28
2023-05-14T12:35:25.453Z,97486.59
2023-05-14T12:40:29.202Z,97661.84
2023-05-14T12:45:32.884Z,97775.31
2023-05-14T12:50:37.976Z,97825.41
2023-05-14T12:55:48.786Z,97781.47
2023-05-14T13:00:57.005Z,97480.59
2023-05-14T13:06:04.662Z,97846.25
2023-05-14T13:11:08.597Z,97750.75
2023-05-14T13:16:16.849Z,97777.81
2023-05-14T13:21:22.264Z,97741.50
2023-05-14T13:26:28.277Z,97789.25
2023-05-14T13:31:31.956Z,97772.34
2023-05-14T13:36:39.696Z,97717.50
2023-05-14T13:41:45.513Z,97775.34
2023-05-14T13:46:49.319Z,97768.50
2023-05-14T13:51:54.487Z,97707.41
2023-05-14T13:57:03.993Z,97752.38
2023-05-14T14:02:08.449Z,97661.31
2023-05-14T14:07:13.409Z,97735.72
2023-05-14T14:12:17.384Z,97652.59
2023-05-14T14:17:21.117Z,97731.38
2023-05-14T14:22:28.173Z,97540.31
2023-05-14T14:27:36.098Z,97716.13
2023-05-14T14:32:39.938Z,97583.91
2023-05-14T14:37:49.263Z,97431.00
2023-05-14T14:43:00.860Z,97458.03
2023-05-14T14:48:24.425Z,97718.53
2023-05-14T14:53:30.891Z,97427.75
2023-05-14T14:58:34.580Z,97549.88
2023-05-14T15:03:38.421Z,97651.22
2023-05-14T15:08:58.851Z,97713.09
2023-05-14T15:14:03.305Z,97580.06
2023-05-14T15:19:06.937Z,97526.16
2023-05-14T15:24:14.308Z,97509.78
2023-05-14T15:29:43.823Z,97726.19
2023-05-14T15:34:53.490Z,97652.56
2023-05-14T15:40:01.210Z,97453.16
2023-05-14T15:45:05.491Z,97658.81
2023-05-14T15:50:10.336Z,97567.56
2023-05-14T15:55:15.325Z,97629.13
2023-05-14T16:00:26.006Z,97482.03
2023-05-14T16:05:33.627Z,97700.59
2023-05-14T16:10:45.808Z,97278.25
2023-05-14T16:15:52.880Z,97717.19
2023-05-14T16:20:56.544Z,97593.63
2023-05-14T16:26:01.514Z,97644.41
2023-05-14T16:31:05.226Z,97680.97
2023-05-14T16:36:09.028Z,97527.22
2023-05-14T16:41:14.109Z,97598.59
2023-05-14T16:46:17.929Z,97669.47
2023-05-14T16:51:21.520Z,97588.75
2023-05-14T16:56:26.579Z,97593.59
2023-05-14T17:01:30.314Z,97696.22
2023-05-14T17:06:34.090Z,97681.22
2023-05-14T17:11:40.201Z,97634.38
2023-05-14T17:16:43.777Z,97679.13
2023-05-14T17:21:47.230Z,97648.91
2023-05-14T17:26:52.147Z,97700.47
2023-05-14T17:31:55.861Z,97670.22
2023-05-14T17:37:00.873Z,97706.50
2023-05-14T17:42:06.951Z,97653.09
2023-05-14T17:47:10.668Z,97710.91
2023-05-14T17:52:14.341Z,97694.31
2023-05-14T17:57:19.429Z,97616.06
2023-05-14T18:02:22.929Z,97710.13
2023-05-14T18:07:26.689Z,97658.00
2023-05-14T18:12:31.843Z,97708.47
2023-05-14T18:17:35.851Z,97670.44
2023-05-14T18:22:39.489Z,97674.22
2023-05-14T18:27:45.585Z,97678.59
2023-05-14T18:32:51.928Z,97727.03
2023-05-14T18:37:56.072Z,97716.63
2023-05-14T18:43:01.224Z,97701.88
2023-05-14T18:48:05.747Z,97545.72
2023-05-14T18:53:09.635Z,97652.66
2023-05-14T18:58:15.447Z,97743.78
2023-05-14T19:03:20.154Z,97704.19
2023-05-14T19:08:24.068Z,97666.63
2023-05-14T19:13:30.463Z,97737.31
2023-05-14T19:18:34.503Z,97677.34
2023-05-14T19:23:38.613Z,97695.16
2023-05-14T19:28:43.867Z,97751.22
2023-05-14T19:33:47.705Z,97586.50
2023-05-14T19:38:51.554Z,97600.94
2023-05-14T19:43:56.713Z,97677.78
2023-05-14T19:49:00.546Z,97746.19
2023-05-14T19:54:04.746Z,97733.50
2023-05-14T19:59:09.911Z,97363.69
2023-05-14T20:04:14.127Z,97329.22
2023-05-14T20:09:20.346Z,97720.34
2023-05-14T20:14:25.688Z,97580.13
2023-05-14T20:19:29.796Z,97727.00
2023-05-14T20:24:33.953Z,97598.09
2023-05-14T20:29:39.617Z,97319.94
2023-05-14T20:34:45.580Z,97767.66
2023-05-14T20:39:55.562Z,97699.06
2023-05-14T20:45:07.799Z,97575.22
2023-05-14T20:50:14.974Z,97738.88
2023-05-14T20:55:19.288Z,97389.47
2023-05-14T21:00:30.572Z,97704.41
2023-05-14T21:05:35.269Z,97433.47
2023-05-14T21:10:39.819Z,97583.31
2023-05-14T21:15:45.813Z,97495.31
2023-05-14T21:20:57.426Z,97507.16
2023-05-14T21:31:43.384Z,97627.84
2023-05-14T21:36:50.084Z,97642.63
2023-05-14T21:41:54.894Z,97294.00
2023-05-14T21:47:03.165Z,97281.50
2023-05-14T21:52:07.362Z,97759.53
2023-05-14T21:57:13.051Z,97438.19
2023-05-14T22:02:23.560Z,97745.53
2023-05-14T22:07:27.748Z,97250.75
2023-05-14T22:12:36.112Z,97518.63
2023-05-14T22:17:44.292Z,97707.66
2023-05-14T22:22:48.591Z,97695.38
2023-05-14T22:27:52.673Z,97454.63
2023-05-14T22:33:03.360Z,97190.91
2023-05-14T22:38:15.892Z,97509.66
2023-05-14T22:43:19.891Z,97524.19
2023-05-14T22:48:27.277Z,97456.31
2023-05-14T22:53:40.950Z,97708.41
2023-05-14T22:58:46.864Z,97586.94
2023-05-14T23:03:54.351Z,97430.38
2023-05-14T23:08:58.291Z,97410.00
2023-05-14T23:14:08.309Z,97521.63
2023-05-14T23:19:19.073Z,97427.16
2023-05-14T23:24:23.325Z,97334.44
2023-05-14T23:29:27.157Z,97410.97
2023-05-14T23:34:35.956Z,97242.09
2023-05-14T23:39:40.581Z,97528.88
2023-05-14T23:44:44.369Z,97332.88
2023-05-14T23:49:49.539Z,97627.56
2023-05-14T23:55:00.529Z,97693.19
